createdAt,value
2018-04-11T00:01:53.919Z,37.17
2018-04-11T00:04:22.773Z,34.87
2018-04-11T00:06:50.822Z,36.67
2018-04-11T00:09:19.079Z,34.17
2018-04-11T00:11:47.135Z,33.50
2018-04-11T00:14:15.211Z,34.87
2018-04-11T00:16:44.033Z,35.30
2018-04-11T00:19:12.100Z,33.40
2018-04-11T00:21:40.150Z,35.63
2018-04-11T00:24:09.130Z,39.43
2018-04-11T00:26:38.079Z,36.40
2018-04-11T00:29:06.145Z,43.57
2018-04-11T00:31:34.206Z,31.90
2018-04-11T00:34:02.277Z,38.53
2018-04-11T00:36:30.338Z,39.00
2018-04-11T00:38:58.493Z,34.20
2018-04-11T00:41:26.592Z,41.17
2018-04-11T00:43:54.650Z,35.07
2018-04-11T00:46:22.773Z,36.83
2018-04-11T00:48:50.820Z,33.43
2018-04-11T00:51:18.886Z,34.57
2018-04-11T00:53:46.951Z,40.40
2018-04-11T00:56:15.039Z,36.00
2018-04-11T00:58:43.095Z,39.00
2018-04-11T01:01:11.169Z,39.03
2018-04-11T01:03:39.231Z,32.93
2018-04-11T01:06:07.418Z,39.00
2018-04-11T01:08:35.490Z,33.77
2018-04-11T01:11:03.597Z,37.83
2018-04-11T01:13:31.652Z,39.77
2018-04-11T01:15:59.694Z,37.33
2018-04-11T01:18:27.773Z,38.53
2018-04-11T01:20:55.847Z,35.57
2018-04-11T01:23:23.902Z,39.63
2018-04-11T01:25:51.994Z,35.00
2018-04-11T01:28:20.025Z,36.50
2018-04-11T01:30:48.142Z,35.90
2018-04-11T01:33:16.170Z,39.47
2018-04-11T01:35:44.215Z,38.97
2018-04-11T01:38:13.047Z,33.37
2018-04-11T01:40:41.085Z,42.20
2018-04-11T01:43:09.891Z,36.53
2018-04-11T01:45:37.973Z,35.50
2018-04-11T01:48:06.035Z,32.20
2018-04-11T01:50:34.858Z,37.30
2018-04-11T01:53:02.964Z,38.57
2018-04-11T01:55:31.042Z,33.90
2018-04-11T01:57:59.526Z,32.97
2018-04-11T02:00:28.333Z,38.50
2018-04-11T02:02:56.416Z,36.80
2018-04-11T02:05:24.554Z,36.93
2018-04-11T02:07:52.605Z,34.97
2018-04-11T02:10:20.665Z,34.53
2018-04-11T02:12:48.706Z,40.03
2018-04-11T02:15:16.758Z,33.10
2018-04-11T02:17:45.595Z,37.17
2018-04-11T02:20:13.631Z,32.70
2018-04-11T02:22:41.702Z,29.23
2018-04-11T02:25:10.236Z,33.43
2018-04-11T02:27:38.258Z,33.67
2018-04-11T02:30:06.316Z,39.20
2018-04-11T02:32:34.400Z,33.23
2018-04-11T02:35:02.449Z,32.80
2018-04-11T02:37:32.503Z,30.47
2018-04-11T02:40:01.418Z,33.30
2018-04-11T02:42:29.466Z,31.67
2018-04-11T02:44:57.555Z,29.43
2018-04-11T02:47:25.619Z,33.60
2018-04-11T02:49:53.717Z,32.37
2018-04-11T02:52:21.755Z,33.47
2018-04-11T02:54:49.822Z,28.07
2018-04-11T02:57:17.878Z,37.10
2018-04-11T02:59:45.943Z,33.73
2018-04-11T03:02:14.014Z,29.87
2018-04-11T03:04:42.213Z,34.80
2018-04-11T03:07:10.955Z,34.13
2018-04-11T03:09:39.901Z,31.80
2018-04-11T03:12:07.942Z,29.73
2018-04-11T03:14:36.034Z,30.03
2018-04-11T03:17:04.087Z,40.13
2018-04-11T03:19:32.158Z,36.00
2018-04-11T03:22:00.200Z,35.77
2018-04-11T03:24:29.045Z,33.13
2018-04-11T03:26:58.133Z,30.40
2018-04-11T03:29:26.227Z,30.67
2018-04-11T03:31:54.274Z,36.50
2018-04-11T03:34:22.376Z,30.10
2018-04-11T03:36:50.441Z,28.50
2018-04-11T03:39:18.512Z,31.43
2018-04-11T03:41:46.570Z,27.47
2018-04-11T03:44:14.635Z,28.50
2018-04-11T03:46:42.751Z,29.17
2018-04-11T03:49:10.840Z,29.30
2018-04-11T03:51:38.892Z,26.17
2018-04-11T03:54:06.958Z,23.77
2018-04-11T03:56:35.010Z,31.73
2018-04-11T03:59:03.083Z,27.07
2018-04-11T04:01:31.262Z,58.80
2018-04-11T04:03:59.416Z,31.43
2018-04-11T04:06:27.445Z,34.47
2018-04-11T04:08:55.518Z,28.87
2018-04-11T04:11:23.738Z,27.27
2018-04-11T04:14:03.621Z,29.73
2018-04-11T04:16:43.561Z,35.77
2018-04-11T04:19:17.383Z,27.57
2018-04-11T04:21:46.235Z,32.57
2018-04-11T04:24:14.472Z,35.57
2018-04-11T04:26:43.299Z,35.47
2018-04-11T04:29:11.451Z,32.87
2018-04-11T04:31:39.700Z,27.73
2018-04-11T04:34:07.720Z,34.97
2018-04-11T04:36:35.843Z,31.17
2018-04-11T04:39:03.882Z,33.40
2018-04-11T04:41:31.912Z,32.60
2018-04-11T04:43:59.957Z,31.00
2018-04-11T04:46:28.031Z,29.47
2018-04-11T04:48:56.766Z,35.30
2018-04-11T04:51:24.837Z,36.17
2018-04-11T04:53:53.609Z,47.33
2018-04-11T04:56:21.664Z,27.47
2018-04-11T04:58:49.742Z,39.73
2018-04-11T05:01:17.805Z,30.33
2018-04-11T05:03:45.868Z,35.87
2018-04-11T05:06:14.099Z,38.47
2018-04-11T05:08:42.173Z,36.17
2018-04-11T05:11:10.274Z,30.97
2018-04-11T05:13:38.346Z,27.70
2018-04-11T05:16:06.378Z,26.13
2018-04-11T05:18:34.454Z,33.73
2018-04-11T05:21:02.530Z,34.93
2018-04-11T05:23:30.593Z,30.60
2018-04-11T05:25:58.704Z,33.73
2018-04-11T05:28:27.534Z,34.27
2018-04-11T05:30:56.362Z,28.83
2018-04-11T05:33:25.995Z,30.47
2018-04-11T05:35:54.066Z,32.53
2018-04-11T05:38:22.097Z,34.17
2018-04-11T05:40:50.160Z,34.50
2018-04-11T05:43:18.229Z,35.73
2018-04-11T05:45:46.273Z,31.53
2018-04-11T05:48:14.330Z,27.57
2018-04-11T05:50:42.402Z,26.87
2018-04-11T05:53:10.477Z,35.30
2018-04-11T05:55:38.525Z,32.73
2018-04-11T05:58:06.574Z,29.70
2018-04-11T06:00:34.667Z,37.73
2018-04-11T06:03:03.525Z,30.23
2018-04-11T06:05:31.634Z,32.40
2018-04-11T06:07:59.661Z,33.80
2018-04-11T06:10:27.723Z,25.70
2018-04-11T06:12:55.768Z,23.67
2018-04-11T06:15:23.821Z,28.60
2018-04-11T06:17:51.994Z,39.13
2018-04-11T06:20:20.035Z,31.37
2018-04-11T06:22:48.200Z,32.33
2018-04-11T06:25:16.147Z,27.70
2018-04-11T06:27:44.201Z,31.00
2018-04-11T06:30:12.294Z,27.37
2018-04-11T06:32:40.335Z,33.90
2018-04-11T06:35:08.563Z,29.97
2018-04-11T06:37:36.942Z,32.70
2018-04-11T06:40:05.764Z,37.50
2018-04-11T06:42:34.602Z,34.37
2018-04-11T06:45:02.664Z,27.07
2018-04-11T06:47:31.512Z,31.00
2018-04-11T06:50:00.331Z,33.10
2018-04-11T06:52:28.475Z,34.70
2018-04-11T06:54:57.877Z,35.10
2018-04-11T06:57:25.803Z,41.17
2018-04-11T06:59:53.883Z,36.63
2018-04-11T07:02:21.936Z,34.47
2018-04-11T07:04:50.006Z,33.83
2018-04-11T07:07:18.082Z,31.50
2018-04-11T07:09:46.122Z,36.70
2018-04-11T07:12:14.209Z,29.97
2018-04-11T07:14:43.028Z,36.70
2018-04-11T07:17:11.078Z,44.70
2018-04-11T07:19:39.138Z,36.60
2018-04-11T07:22:07.201Z,37.13
2018-04-11T07:24:36.098Z,36.53
2018-04-11T07:27:04.158Z,30.80
2018-04-11T07:29:32.202Z,30.50
2018-04-11T07:32:00.273Z,33.17
2018-04-11T07:34:28.351Z,37.20
2018-04-11T07:36:56.531Z,35.53
2018-04-11T07:39:24.561Z,36.13
2018-04-11T07:41:52.626Z,30.80
2018-04-11T07:44:20.728Z,34.57
2018-04-11T07:46:48.910Z,29.10
2018-04-11T07:49:16.982Z,32.37
2018-04-11T07:51:45.054Z,35.73
2018-04-11T07:54:13.114Z,36.47
2018-04-11T07:56:41.960Z,38.57
2018-04-11T07:59:10.834Z,37.17
2018-04-11T08:01:38.902Z,33.87
2018-04-11T08:04:06.954Z,32.17
2018-04-11T08:06:35.028Z,39.30
2018-04-11T08:09:03.063Z,35.63
2018-04-11T08:11:31.130Z,28.63
2018-04-11T08:13:59.187Z,34.23
2018-04-11T08:16:27.235Z,37.10
2018-04-11T08:18:55.359Z,43.43
2018-04-11T08:21:23.393Z,45.63
2018-04-11T08:23:51.348Z,40.40
2018-04-11T08:26:19.429Z,33.57
2018-04-11T08:28:49.270Z,35.43
2018-04-11T08:31:17.328Z,39.03
2018-04-11T08:33:45.458Z,33.53
2018-04-11T08:36:13.522Z,37.73
2018-04-11T08:38:41.581Z,46.03
2018-04-11T08:41:09.644Z,35.77
2018-04-11T08:43:38.492Z,34.10
2018-04-11T08:46:06.590Z,39.00
2018-04-11T08:48:34.634Z,37.70
2018-04-11T08:51:02.672Z,33.20
2018-04-11T08:53:30.752Z,32.93
2018-04-11T08:55:58.820Z,36.87
2018-04-11T08:58:26.887Z,33.63
2018-04-11T09:00:54.940Z,36.47
2018-04-11T09:03:23.026Z,33.47
2018-04-11T09:05:51.166Z,35.53
2018-04-11T09:08:19.997Z,30.43
2018-04-11T09:10:48.056Z,32.87
2018-04-11T09:13:16.168Z,34.77
2018-04-11T09:15:44.401Z,24.37
2018-04-11T09:18:12.452Z,29.07
2018-04-11T09:20:41.269Z,25.07
2018-04-11T09:23:09.333Z,30.60
2018-04-11T09:25:37.388Z,34.60
2018-04-11T09:28:06.218Z,25.50
2018-04-11T09:30:34.255Z,25.23
2018-04-11T09:33:02.339Z,30.13
2018-04-11T09:35:30.393Z,29.17
2018-04-11T09:37:59.214Z,40.10
2018-04-11T09:40:27.286Z,28.67
2018-04-11T09:42:55.591Z,29.70
2018-04-11T09:45:23.616Z,31.00
2018-04-11T09:47:51.714Z,34.00
2018-04-11T09:50:19.750Z,30.53
2018-04-11T09:52:47.838Z,32.13
2018-04-11T09:55:15.902Z,33.83
2018-04-11T09:57:43.958Z,32.83
2018-04-11T10:00:12.787Z,33.47
2018-04-11T10:02:40.857Z,34.90
2018-04-11T10:05:08.923Z,28.13
2018-04-11T10:07:36.968Z,37.17
2018-04-11T10:10:05.051Z,35.77
2018-04-11T10:12:33.113Z,38.03
2018-04-11T10:15:01.178Z,37.33
2018-04-11T10:17:29.225Z,36.43
2018-04-11T10:19:57.274Z,32.20
2018-04-11T10:22:25.346Z,30.40
2018-04-11T10:24:53.420Z,37.00
2018-04-11T10:27:21.472Z,38.70
2018-04-11T10:29:49.545Z,35.10
2018-04-11T10:32:17.888Z,31.80
2018-04-11T10:34:46.067Z,42.03
2018-04-11T10:37:14.112Z,41.30
2018-04-11T10:39:42.941Z,39.40
2018-04-11T10:42:10.975Z,40.40
2018-04-11T10:44:39.807Z,51.57
2018-04-11T10:47:07.874Z,51.50
2018-04-11T10:49:35.924Z,44.03
2018-04-11T10:52:03.961Z,46.10
2018-04-11T10:54:32.067Z,45.23
2018-04-11T10:57:00.078Z,35.87
2018-04-11T10:59:28.162Z,38.90
2018-04-11T11:01:56.281Z,37.10
2018-04-11T11:04:24.455Z,43.47
2018-04-11T11:06:52.510Z,36.30
2018-04-11T11:09:21.321Z,42.57
2018-04-11T11:11:49.380Z,37.80
2018-04-11T11:14:18.212Z,38.63
2018-04-11T11:16:46.309Z,36.40
2018-04-11T11:19:14.366Z,46.83
2018-04-11T11:21:42.439Z,44.20
2018-04-11T11:24:11.246Z,61.30
2018-04-11T11:26:39.310Z,31.00
2018-04-11T11:29:07.367Z,34.67
2018-04-11T11:31:35.442Z,33.13
2018-04-11T11:34:03.491Z,63.93
2018-04-11T11:36:31.538Z,36.73
2018-04-11T11:38:59.620Z,33.83
2018-04-11T11:41:27.688Z,36.87
2018-04-11T11:43:55.787Z,39.50
2018-04-11T11:46:23.829Z,38.10
2018-04-11T11:48:51.873Z,41.33
2018-04-11T11:51:20.780Z,46.10
2018-04-11T11:53:48.804Z,41.27
2018-04-11T11:56:17.910Z,36.10
2018-04-11T11:58:45.971Z,35.03
2018-04-11T12:01:14.018Z,39.93
2018-04-11T12:03:42.086Z,36.77
2018-04-11T12:06:10.157Z,42.83
2018-04-11T12:08:38.210Z,41.37
2018-04-11T12:11:06.279Z,43.93
2018-04-11T12:13:34.355Z,47.67
2018-04-11T12:16:02.397Z,46.90
2018-04-11T12:18:31.240Z,42.17
2018-04-11T12:20:59.311Z,46.60
2018-04-11T12:23:27.348Z,44.60
2018-04-11T12:25:55.415Z,47.70
2018-04-11T12:28:23.490Z,40.53
2018-04-11T12:30:52.297Z,44.97
2018-04-11T12:33:21.355Z,49.37
2018-04-11T12:35:49.410Z,54.00
2018-04-11T12:38:17.457Z,40.83
2018-04-11T12:40:45.501Z,50.10
2018-04-11T12:43:13.658Z,39.23
2018-04-11T12:45:41.691Z,42.33
2018-04-11T12:48:09.814Z,43.80
2018-04-11T12:50:38.593Z,46.07
2018-04-11T12:53:06.662Z,42.13
2018-04-11T12:55:34.735Z,46.17
2018-04-11T12:58:02.782Z,44.53
2018-04-11T13:00:30.841Z,41.30
2018-04-11T13:02:58.946Z,38.40
2018-04-11T13:05:26.985Z,42.10
2018-04-11T13:07:55.021Z,38.47
2018-04-11T13:10:23.062Z,41.80
2018-04-11T13:12:51.169Z,80.20
2018-04-11T13:15:19.218Z,41.50
2018-04-11T13:17:47.305Z,42.73
2018-04-11T13:20:15.350Z,44.83
2018-04-11T13:22:43.428Z,52.40
2018-04-11T13:25:11.462Z,45.70
2018-04-11T13:27:40.308Z,55.33
2018-04-11T13:30:08.405Z,52.77
2018-04-11T13:32:36.470Z,46.80
2018-04-11T13:35:04.527Z,45.57
2018-04-11T13:37:32.665Z,45.40
2018-04-11T13:40:00.675Z,53.50
2018-04-11T13:42:28.745Z,45.10
2018-04-11T13:44:56.795Z,53.60
2018-04-11T13:47:24.877Z,46.37
2018-04-11T13:49:52.945Z,45.50
2018-04-11T13:52:21.037Z,45.87
2018-04-11T13:54:49.078Z,41.97
2018-04-11T13:57:17.130Z,39.67
2018-04-11T13:59:46.533Z,44.57
2018-04-11T14:02:15.367Z,48.10
2018-04-11T14:04:43.400Z,49.53
2018-04-11T14:07:11.490Z,41.53
2018-04-11T14:09:39.580Z,43.70
2018-04-11T14:12:07.630Z,47.10
2018-04-11T14:14:35.687Z,43.57
2018-04-11T14:17:03.756Z,42.20
2018-04-11T14:19:31.811Z,45.03
2018-04-11T14:22:00.626Z,40.67
2018-04-11T14:24:28.703Z,42.37
2018-04-11T14:26:56.775Z,46.83
2018-04-11T14:29:24.812Z,49.37
2018-04-11T14:31:53.634Z,45.17
2018-04-11T14:34:21.700Z,41.37
2018-04-11T14:36:49.965Z,51.57
2018-04-11T14:39:17.965Z,39.80
2018-04-11T14:41:46.023Z,37.73
2018-04-11T14:44:14.081Z,51.10
2018-04-11T14:46:42.130Z,41.30
2018-04-11T14:49:10.996Z,39.47
2018-04-11T14:51:39.064Z,38.13
2018-04-11T14:54:07.146Z,38.07
2018-04-11T14:56:35.165Z,51.83
2018-04-11T14:59:03.209Z,52.43
2018-04-11T15:01:31.279Z,46.07
2018-04-11T15:04:00.106Z,42.53
2018-04-11T15:06:29.035Z,43.40
2018-04-11T15:11:31.423Z,42.07
2018-04-11T15:13:59.496Z,42.10
2018-04-11T15:16:27.576Z,46.33
2018-04-11T15:18:55.613Z,32.33
2018-04-11T15:21:23.682Z,33.93
2018-04-11T15:23:51.770Z,36.10
2018-04-11T15:26:19.868Z,34.80
2018-04-11T15:28:47.917Z,43.30
2018-04-11T15:31:16.010Z,38.40
2018-04-11T15:33:44.037Z,30.70
2018-04-11T15:36:12.098Z,51.70
2018-04-11T15:38:40.169Z,34.20
2018-04-11T15:41:08.936Z,37.00
2018-04-11T15:43:36.998Z,36.77
2018-04-11T15:46:05.981Z,45.27
2018-04-11T15:48:34.819Z,43.23
2018-04-11T15:51:02.882Z,50.97
2018-04-11T15:53:30.936Z,43.27
2018-04-11T15:55:59.018Z,49.83
2018-04-11T15:58:27.077Z,51.67
2018-04-11T16:00:55.182Z,49.60
2018-04-11T16:03:23.242Z,54.40
2018-04-11T16:05:51.327Z,52.17
2018-04-11T16:08:19.374Z,49.07
2018-04-11T16:10:47.464Z,47.67
2018-04-11T16:13:15.503Z,47.40
2018-04-11T16:15:43.571Z,44.50
2018-04-11T16:18:11.618Z,50.23
2018-04-11T16:20:41.184Z,51.77
2018-04-11T16:23:09.320Z,48.30
2018-04-11T16:25:37.841Z,55.57
2018-04-11T16:28:05.876Z,46.93
2018-04-11T16:30:34.366Z,52.87
2018-04-11T16:33:02.426Z,50.67
2018-04-11T16:35:30.514Z,53.93
2018-04-11T16:37:59.446Z,74.83
2018-04-11T16:40:27.487Z,66.57
2018-04-11T16:42:55.580Z,75.70
2018-04-11T16:45:23.605Z,76.87
2018-04-11T16:47:51.697Z,64.63
2018-04-11T16:50:19.830Z,64.67
2018-04-11T16:52:48.637Z,62.50
2018-04-11T16:55:16.758Z,64.47
2018-04-11T16:57:45.477Z,53.80
2018-04-11T17:00:14.334Z,61.20
2018-04-11T17:02:42.453Z,92.10
2018-04-11T17:05:10.879Z,79.97
2018-04-11T17:07:39.008Z,69.33
2018-04-11T17:10:07.807Z,67.63
2018-04-11T17:12:35.862Z,61.30
2018-04-11T17:15:04.700Z,57.00
2018-04-11T17:17:32.725Z,57.00
2018-04-11T17:20:00.812Z,68.00
2018-04-11T17:22:40.659Z,58.70
2018-04-11T17:25:20.951Z,66.67
2018-04-11T17:28:01.898Z,61.57
2018-04-11T17:30:41.929Z,56.43
2018-04-11T17:33:09.990Z,66.60
2018-04-11T17:35:39.315Z,61.73
2018-04-11T17:38:07.377Z,73.63
2018-04-11T17:40:35.446Z,54.40
2018-04-11T17:43:04.332Z,54.67
2018-04-11T17:45:33.222Z,61.53
2018-04-11T17:48:01.285Z,61.40
2018-04-11T17:50:30.910Z,54.40
2018-04-11T17:52:59.010Z,54.17
2018-04-11T17:55:27.108Z,59.03
2018-04-11T17:57:55.208Z,51.00
2018-04-11T18:00:24.418Z,50.97
2018-04-11T18:02:53.253Z,60.70
2018-04-11T18:05:21.325Z,52.97
2018-04-11T18:07:49.431Z,59.83
2018-04-11T18:10:17.517Z,65.93
2018-04-11T18:12:45.699Z,64.00
2018-04-11T18:15:14.526Z,62.27
2018-04-11T18:17:42.670Z,52.50
2018-04-11T18:20:11.514Z,56.00
2018-04-11T18:22:39.587Z,57.13
2018-04-11T18:25:09.168Z,55.77
2018-04-11T18:27:37.214Z,55.60
2018-04-11T18:30:05.261Z,50.90
2018-04-11T18:32:34.169Z,59.17
2018-04-11T18:35:02.178Z,58.60
2018-04-11T18:37:31.617Z,51.40
2018-04-11T18:39:59.574Z,52.50
2018-04-11T18:42:27.651Z,53.43
2018-04-11T18:44:55.707Z,60.60
2018-04-11T18:47:25.109Z,55.40
2018-04-11T18:49:53.082Z,52.90
2018-04-11T18:52:21.143Z,56.60
2018-04-11T18:54:49.443Z,47.70
2018-04-11T18:57:17.504Z,46.53
2018-04-11T18:59:45.582Z,45.43
2018-04-11T19:02:13.640Z,48.47
2018-04-11T19:04:41.714Z,43.97
2018-04-11T19:07:11.363Z,45.40
2018-04-11T19:09:39.421Z,49.40
2018-04-11T19:12:08.266Z,45.80
2018-04-11T19:14:36.339Z,47.57
2018-04-11T19:17:04.466Z,37.73
2018-04-11T19:19:32.509Z,37.53
2018-04-11T19:22:01.282Z,52.83
2018-04-11T19:24:29.350Z,40.60
2018-04-11T19:26:57.435Z,44.70
2018-04-11T19:29:26.532Z,48.00
2018-04-11T19:31:54.596Z,40.57
2018-04-11T19:34:22.656Z,46.57
2018-04-11T19:36:50.715Z,40.03
2018-04-11T19:39:18.770Z,52.47
2018-04-11T19:41:47.054Z,46.23
2018-04-11T19:44:15.116Z,47.53
2018-04-11T19:46:43.223Z,44.60
2018-04-11T19:49:11.248Z,49.13
2018-04-11T19:51:39.298Z,49.30
2018-04-11T19:54:07.367Z,49.23
2018-04-11T19:56:35.497Z,43.77
2018-04-11T19:59:04.113Z,56.80
2018-04-11T20:01:32.149Z,57.50
2018-04-11T20:04:00.239Z,61.07
2018-04-11T20:06:28.284Z,52.20
2018-04-11T20:08:56.364Z,59.63
2018-04-11T20:11:24.727Z,55.90
2018-04-11T20:13:53.550Z,50.17
2018-04-11T20:16:22.374Z,51.70
2018-04-11T20:18:50.466Z,50.20
2018-04-11T20:21:20.790Z,58.87
2018-04-11T20:23:48.883Z,47.50
2018-04-11T20:26:18.986Z,52.07
2018-04-11T20:28:47.050Z,47.17
2018-04-11T20:31:15.502Z,49.87
2018-04-11T20:33:45.552Z,50.27
2018-04-11T20:36:13.620Z,48.07
2018-04-11T20:38:42.820Z,50.63
2018-04-11T20:41:10.883Z,52.60
2018-04-11T20:43:39.010Z,61.73
2018-04-11T20:46:07.057Z,58.30
2018-04-11T20:48:35.123Z,53.10
2018-04-11T20:51:04.464Z,60.90
2018-04-11T20:53:33.522Z,55.53
2018-04-11T20:56:01.564Z,52.40
2018-04-11T20:58:31.249Z,63.13
2018-04-11T21:01:00.074Z,56.20
2018-04-11T21:03:28.607Z,69.70
2018-04-11T21:06:01.655Z,64.47
2018-04-11T21:08:30.538Z,62.83
2018-04-11T21:10:59.354Z,57.77
2018-04-11T21:13:27.417Z,70.00
2018-04-11T21:15:55.492Z,67.13
2018-04-11T21:18:24.254Z,66.27
2018-04-11T21:20:52.309Z,66.53
2018-04-11T21:23:21.102Z,63.97
2018-04-11T21:25:49.178Z,79.93
2018-04-11T21:28:17.907Z,68.97
2018-04-11T21:30:46.715Z,70.10
2018-04-11T21:33:14.869Z,67.07
2018-04-11T21:35:42.927Z,73.73
2018-04-11T21:38:11.987Z,68.87
2018-04-11T21:40:40.910Z,72.33
2018-04-11T21:43:08.979Z,72.27
2018-04-11T21:45:38.206Z,70.67
2018-04-11T21:48:07.138Z,73.67
2018-04-11T21:50:35.174Z,77.97
2018-04-11T21:53:03.233Z,72.53
2018-04-11T21:55:31.326Z,71.50
2018-04-11T21:57:59.822Z,71.97
2018-04-11T22:00:27.891Z,63.80
2018-04-11T22:02:56.769Z,77.70
2018-04-11T22:05:24.886Z,70.17
2018-04-11T22:07:52.967Z,77.67
2018-04-11T22:10:22.031Z,61.73
2018-04-11T22:12:50.682Z,63.63
2018-04-11T22:15:19.171Z,73.27
2018-04-11T22:17:48.727Z,69.63
2018-04-11T22:20:16.778Z,70.53
2018-04-11T22:22:45.308Z,76.40
2018-04-11T22:25:13.394Z,73.73
2018-04-11T22:27:42.724Z,68.00
2018-04-11T22:30:10.747Z,76.00
2018-04-11T22:32:38.791Z,69.27
2018-04-11T22:35:06.876Z,78.43
2018-04-11T22:37:34.974Z,71.30
2018-04-11T22:40:03.043Z,71.63
2018-04-11T22:42:31.115Z,81.90
2018-04-11T22:44:59.215Z,79.53
2018-04-11T22:47:28.067Z,73.47
2018-04-11T22:49:56.193Z,73.63
2018-04-11T22:52:24.249Z,69.10
2018-04-11T22:54:52.285Z,72.70
2018-04-11T22:57:20.381Z,70.70
2018-04-11T22:59:48.484Z,76.23
2018-04-11T23:02:16.517Z,77.67
2018-04-11T23:04:44.572Z,91.63
2018-04-11T23:07:12.637Z,77.67
2018-04-11T23:09:40.707Z,88.83
2018-04-11T23:12:08.763Z,78.40
2018-04-11T23:14:36.851Z,72.73
2018-04-11T23:17:04.913Z,73.53
2018-04-11T23:19:32.981Z,74.00
2018-04-11T23:22:01.037Z,77.03
2018-04-11T23:24:29.117Z,76.67
2018-04-11T23:26:57.170Z,85.53
2018-04-11T23:29:25.258Z,77.63
2018-04-11T23:31:53.302Z,87.57
2018-04-11T23:34:21.402Z,77.73
2018-04-11T23:36:49.483Z,74.40
2018-04-11T23:39:17.559Z,82.80
2018-04-11T23:41:45.621Z,78.20
2018-04-11T23:44:13.684Z,74.03
2018-04-11T23:46:41.767Z,67.77
2018-04-11T23:49:09.824Z,80.37
2018-04-11T23:51:37.911Z,75.90
2018-04-11T23:54:05.978Z,69.17
2018-04-11T23:56:34.038Z,78.87
2018-04-11T23:59:02.116Z,80.60
